sensor_id;sensor_type;location;lat;lon;timestamp;pressure;altitude;pressure_sealevel;temperature;humidity
66430;BME280;53242;51.694;10.006;2024-02-21T00:01:38;100151.31;;;8.45;81.68
66430;BME280;53242;51.694;10.006;2024-02-21T00:04:02;100148.06;;;8.43;82.29
66430;BME280;53242;51.694;10.006;2024-02-21T00:06:24;100150.53;;;8.36;83.24
66430;BME280;53242;51.694;10.006;2024-02-21T00:08:48;100151.16;;;8.21;84.56
66430;BME280;53242;51.694;10.006;2024-02-21T00:11:10;100159.53;;;8.25;85.40
66430;BME280;53242;51.694;10.006;2024-02-21T00:13:33;100161.34;;;8.25;85.70
66430;BME280;53242;51.694;10.006;2024-02-21T00:15:55;100160.22;;;8.27;86.03
66430;BME280;53242;51.694;10.006;2024-02-21T00:18:18;100169.88;;;8.27;86.65
66430;BME280;53242;51.694;10.006;2024-02-21T00:20:40;100163.16;;;8.24;86.87
66430;BME280;53242;51.694;10.006;2024-02-21T00:23:02;100159.53;;;8.17;86.89
66430;BME280;53242;51.694;10.006;2024-02-21T00:25:25;100161.84;;;8.20;87.08
66430;BME280;53242;51.694;10.006;2024-02-21T00:27:48;100157.25;;;8.22;87.36
66430;BME280;53242;51.694;10.006;2024-02-21T00:30:10;100160.34;;;8.17;87.49
66430;BME280;53242;51.694;10.006;2024-02-21T00:32:33;100158.22;;;8.21;87.52
66430;BME280;53242;51.694;10.006;2024-02-21T00:34:56;100157.56;;;8.19;87.83
66430;BME280;53242;51.694;10.006;2024-02-21T00:37:19;100162.16;;;8.17;87.98
66430;BME280;53242;51.694;10.006;2024-02-21T00:39:41;100148.53;;;8.13;87.39
66430;BME280;53242;51.694;10.006;2024-02-21T00:42:04;100151.16;;;8.13;88.22
66430;BME280;53242;51.694;10.006;2024-02-21T00:44:27;100141.78;;;8.11;88.34
66430;BME280;53242;51.694;10.006;2024-02-21T00:46:49;100138.81;;;8.05;88.54
66430;BME280;53242;51.694;10.006;2024-02-21T00:49:12;100142.59;;;8.11;88.54
66430;BME280;53242;51.694;10.006;2024-02-21T00:51:34;100143.25;;;8.13;88.61
66430;BME280;53242;51.694;10.006;2024-02-21T00:53:56;100137.81;;;7.98;89.02
66430;BME280;53242;51.694;10.006;2024-02-21T00:56:19;100137.66;;;8.00;89.07
66430;BME280;53242;51.694;10.006;2024-02-21T00:58:41;100137.34;;;8.11;88.40
66430;BME280;53242;51.694;10.006;2024-02-21T01:01:04;100135.03;;;8.08;88.61
66430;BME280;53242;51.694;10.006;2024-02-21T01:03:26;100125.00;;;7.95;89.48
66430;BME280;53242;51.694;10.006;2024-02-21T01:05:49;100117.78;;;8.05;89.04
66430;BME280;53242;51.694;10.006;2024-02-21T01:08:11;100110.88;;;8.04;88.68
66430;BME280;53242;51.694;10.006;2024-02-21T01:10:33;100108.28;;;8.13;88.68
66430;BME280;53242;51.694;10.006;2024-02-21T01:12:56;100104.44;;;7.90;89.55
66430;BME280;53242;51.694;10.006;2024-02-21T01:15:18;100106.28;;;8.06;89.19
66430;BME280;53242;51.694;10.006;2024-02-21T01:17:41;100109.09;;;8.13;89.19
66430;BME280;53242;51.694;10.006;2024-02-21T01:20:03;100106.28;;;8.06;89.27
66430;BME280;53242;51.694;10.006;2024-02-21T01:22:27;100104.31;;;8.09;89.06
66430;BME280;53242;51.694;10.006;2024-02-21T01:24:50;100097.72;;;8.04;89.13
66430;BME280;53242;51.694;10.006;2024-02-21T01:27:13;100099.38;;;8.05;89.31
66430;BME280;53242;51.694;10.006;2024-02-21T01:29:35;100086.06;;;8.07;89.42
66430;BME280;53242;51.694;10.006;2024-02-21T01:31:58;100084.75;;;8.03;89.35
66430;BME280;53242;51.694;10.006;2024-02-21T01:34:20;100082.13;;;8.03;89.42
66430;BME280;53242;51.694;10.006;2024-02-21T01:36:43;100073.59;;;8.09;89.35
66430;BME280;53242;51.694;10.006;2024-02-21T01:39:05;100072.94;;;7.99;90.09
66430;BME280;53242;51.694;10.006;2024-02-21T01:41:30;100080.81;;;8.07;89.71
66430;BME280;53242;51.694;10.006;2024-02-21T01:43:52;100076.72;;;7.96;89.70
66430;BME280;53242;51.694;10.006;2024-02-21T01:46:15;100069.50;;;8.06;89.75
66430;BME280;53242;51.694;10.006;2024-02-21T01:48:38;100069.50;;;8.06;89.61
66430;BME280;53242;51.694;10.006;2024-02-21T01:51:01;100065.03;;;8.07;89.85
66430;BME280;53242;51.694;10.006;2024-02-21T01:53:29;100069.81;;;7.95;90.25
66430;BME280;53242;51.694;10.006;2024-02-21T01:55:52;100064.38;;;7.97;89.79
66430;BME280;53242;51.694;10.006;2024-02-21T01:58:16;100059.78;;;8.07;89.59
66430;BME280;53242;51.694;10.006;2024-02-21T02:00:40;100058.47;;;8.03;89.97
66430;BME280;53242;51.694;10.006;2024-02-21T02:03:04;100054.53;;;8.07;90.04
66430;BME280;53242;51.694;10.006;2024-02-21T02:05:26;100049.75;;;8.11;89.87
66430;BME280;53242;51.694;10.006;2024-02-21T02:07:49;100048.44;;;8.15;89.51
66430;BME280;53242;51.694;10.006;2024-02-21T02:10:11;100040.41;;;8.08;89.76
66430;BME280;53242;51.694;10.006;2024-02-21T02:12:34;100038.91;;;8.05;90.14
66430;BME280;53242;51.694;10.006;2024-02-21T02:15:00;100041.88;;;8.02;89.55
66430;BME280;53242;51.694;10.006;2024-02-21T02:17:23;100037.44;;;8.03;89.77
66430;BME280;53242;51.694;10.006;2024-02-21T02:19:45;100035.97;;;8.17;89.51
66430;BME280;53242;51.694;10.006;2024-02-21T02:22:14;100029.53;;;8.11;89.68
66430;BME280;53242;51.694;10.006;2024-02-21T02:24:39;100024.59;;;8.16;89.54
66430;BME280;53242;51.694;10.006;2024-02-21T02:27:02;100023.47;;;8.11;89.73
66430;BME280;53242;51.694;10.006;2024-02-21T02:29:24;100019.53;;;8.15;89.85
66430;BME280;53242;51.694;10.006;2024-02-21T02:31:47;100023.13;;;8.22;89.33
66430;BME280;53242;51.694;10.006;2024-02-21T02:34:09;100014.91;;;8.09;89.71
66430;BME280;53242;51.694;10.006;2024-02-21T02:36:32;100010.81;;;8.14;89.96
66430;BME280;53242;51.694;10.006;2024-02-21T02:38:55;100011.31;;;8.10;90.19
66430;BME280;53242;51.694;10.006;2024-02-21T02:41:18;100007.22;;;8.15;90.03
66430;BME280;53242;51.694;10.006;2024-02-21T02:43:40;100011.47;;;8.16;90.46
66430;BME280;53242;51.694;10.006;2024-02-21T02:46:03;100009.19;;;8.13;90.10
66430;BME280;53242;51.694;10.006;2024-02-21T02:48:25;100003.41;;;8.10;90.06
66430;BME280;53242;51.694;10.006;2024-02-21T02:50:48;100002.41;;;8.19;89.76
66430;BME280;53242;51.694;10.006;2024-02-21T02:53:11;99998.00;;;8.11;90.03
66430;BME280;53242;51.694;10.006;2024-02-21T02:55:34;99993.06;;;8.16;89.65
66430;BME280;53242;51.694;10.006;2024-02-21T02:57:57;99986.16;;;8.07;90.50
66430;BME280;53242;51.694;10.006;2024-02-21T03:00:20;99979.13;;;8.07;90.34
66430;BME280;53242;51.694;10.006;2024-02-21T03:02:45;99973.69;;;8.01;91.09
66430;BME280;53242;51.694;10.006;2024-02-21T03:05:13;99978.47;;;8.05;90.96
66430;BME280;53242;51.694;10.006;2024-02-21T03:07:36;99964.34;;;8.06;90.46
66430;BME280;53242;51.694;10.006;2024-02-21T03:09:59;99974.34;;;8.03;90.68
66430;BME280;53242;51.694;10.006;2024-02-21T03:12:21;99970.56;;;8.14;89.94
66430;BME280;53242;51.694;10.006;2024-02-21T03:14:50;99970.59;;;7.97;90.04
66430;BME280;53242;51.694;10.006;2024-02-21T03:17:12;99952.34;;;8.04;89.46
66430;BME280;53242;51.694;10.006;2024-02-21T03:19:35;99948.56;;;7.98;89.62
66430;BME280;53242;51.694;10.006;2024-02-21T03:21:57;99955.97;;;7.86;90.45
66430;BME280;53242;51.694;10.006;2024-02-21T03:24:20;99965.34;;;7.97;90.22
66430;BME280;53242;51.694;10.006;2024-02-21T03:26:43;99956.78;;;7.95;90.23
66430;BME280;53242;51.694;10.006;2024-02-21T03:29:05;99960.88;;;7.98;89.89
66430;BME280;53242;51.694;10.006;2024-02-21T03:31:29;99955.47;;;7.91;90.44
66430;BME280;53242;51.694;10.006;2024-02-21T03:33:51;99952.31;;;8.12;89.66
66430;BME280;53242;51.694;10.006;2024-02-21T03:36:14;99957.78;;;8.02;89.63
66430;BME280;53242;51.694;10.006;2024-02-21T03:38:37;99949.38;;;8.07;89.19
66430;BME280;53242;51.694;10.006;2024-02-21T03:40:59;99955.47;;;8.07;89.22
66430;BME280;53242;51.694;10.006;2024-02-21T03:43:22;99954.00;;;8.05;89.51
66430;BME280;53242;51.694;10.006;2024-02-21T03:45:44;99953.66;;;8.00;90.13
66430;BME280;53242;51.694;10.006;2024-02-21T03:48:07;99950.22;;;8.07;89.37
66430;BME280;53242;51.694;10.006;2024-02-21T03:50:29;99951.31;;;8.21;88.88
66430;BME280;53242;51.694;10.006;2024-02-21T03:52:51;99939.50;;;8.17;88.80
66430;BME280;53242;51.694;10.006;2024-02-21T03:55:14;99945.94;;;8.06;89.24
66430;BME280;53242;51.694;10.006;2024-02-21T03:57:36;99944.09;;;8.07;89.06
66430;BME280;53242;51.694;10.006;2024-02-21T03:59:59;99950.53;;;8.04;89.31
66430;BME280;53242;51.694;10.006;2024-02-21T04:02:21;99948.06;;;8.03;88.96
66430;BME280;53242;51.694;10.006;2024-02-21T04:04:44;99943.31;;;8.06;89.34
66430;BME280;53242;51.694;10.006;2024-02-21T04:07:09;99933.63;;;7.99;89.16
66430;BME280;53242;51.694;10.006;2024-02-21T04:09:31;99921.94;;;8.01;88.93
66430;BME280;53242;51.694;10.006;2024-02-21T04:11:54;99916.84;;;8.08;88.99
66430;BME280;53242;51.694;10.006;2024-02-21T04:14:16;99904.38;;;8.02;89.04
66430;BME280;53242;51.694;10.006;2024-02-21T04:16:38;99902.38;;;8.12;88.99
66430;BME280;53242;51.694;10.006;2024-02-21T04:19:01;99914.03;;;8.10;88.44
66430;BME280;53242;51.694;10.006;2024-02-21T04:21:24;99906.53;;;7.90;88.94
66430;BME280;53242;51.694;10.006;2024-02-21T04:23:47;99911.44;;;8.01;89.08
66430;BME280;53242;51.694;10.006;2024-02-21T04:26:09;99911.94;;;7.97;89.29
66430;BME280;53242;51.694;10.006;2024-02-21T04:28:31;99911.44;;;7.93;88.63
66430;BME280;53242;51.694;10.006;2024-02-21T04:30:54;99912.59;;;7.99;88.23
66430;BME280;53242;51.694;10.006;2024-02-21T04:33:16;99914.56;;;8.05;87.84
66430;BME280;53242;51.694;10.006;2024-02-21T04:35:39;99907.00;;;8.02;87.85
66430;BME280;53242;51.694;10.006;2024-02-21T04:38:01;99908.59;;;8.11;87.50
66430;BME280;53242;51.694;10.006;2024-02-21T04:40:24;99899.41;;;8.07;87.23
66430;BME280;53242;51.694;10.006;2024-02-21T04:42:46;99895.50;;;8.03;87.12
66430;BME280;53242;51.694;10.006;2024-02-21T04:45:09;99897.63;;;8.07;86.80
66430;BME280;53242;51.694;10.006;2024-02-21T04:47:31;99903.88;;;8.06;87.33
66430;BME280;53242;51.694;10.006;2024-02-21T04:49:54;99909.63;;;8.02;87.41
66430;BME280;53242;51.694;10.006;2024-02-21T04:52:16;99903.34;;;8.11;87.14
66430;BME280;53242;51.694;10.006;2024-02-21T04:54:39;99907.97;;;8.09;87.19
66430;BME280;53242;51.694;10.006;2024-02-21T04:57:01;99908.47;;;8.04;87.05
66430;BME280;53242;51.694;10.006;2024-02-21T04:59:23;99906.31;;;8.08;86.91
66430;BME280;53242;51.694;10.006;2024-02-21T05:01:46;99911.09;;;8.04;87.03
66430;BME280;53242;51.694;10.006;2024-02-21T05:04:08;99907.66;;;8.04;87.15
66430;BME280;53242;51.694;10.006;2024-02-21T05:06:31;99900.59;;;7.96;87.18
66430;BME280;53242;51.694;10.006;2024-02-21T05:08:53;99896.31;;;8.03;87.30
66430;BME280;53242;51.694;10.006;2024-02-21T05:11:17;99895.31;;;8.04;87.21
66430;BME280;53242;51.694;10.006;2024-02-21T05:13:39;99900.75;;;8.03;87.04
66430;BME280;53242;51.694;10.006;2024-02-21T05:16:02;99898.78;;;7.97;87.76
66430;BME280;53242;51.694;10.006;2024-02-21T05:18:25;99902.22;;;8.05;87.50
66430;BME280;53242;51.694;10.006;2024-02-21T05:20:47;99902.06;;;7.90;88.27
66430;BME280;53242;51.694;10.006;2024-02-21T05:23:10;99911.75;;;7.98;88.06
66430;BME280;53242;51.694;10.006;2024-02-21T05:25:32;99903.22;;;7.88;88.78
66430;BME280;53242;51.694;10.006;2024-02-21T05:27:54;99905.69;;;7.89;88.17
66430;BME280;53242;51.694;10.006;2024-02-21T05:30:18;99910.47;;;7.86;88.33
66430;BME280;53242;51.694;10.006;2024-02-21T05:32:40;99908.00;;;7.84;88.40
66430;BME280;53242;51.694;10.006;2024-02-21T05:35:02;99913.09;;;7.94;88.18
66430;BME280;53242;51.694;10.006;2024-02-21T05:37:25;99911.13;;;7.96;88.04
66430;BME280;53242;51.694;10.006;2024-02-21T05:39:47;99916.69;;;7.93;87.76
66430;BME280;53242;51.694;10.006;2024-02-21T05:42:10;99906.19;;;8.01;87.59
66430;BME280;53242;51.694;10.006;2024-02-21T05:44:32;99910.44;;;7.94;87.76
66430;BME280;53242;51.694;10.006;2024-02-21T05:46:55;99905.50;;;7.99;87.71
66430;BME280;53242;51.694;10.006;2024-02-21T05:49:17;99908.66;;;7.86;88.01
66430;BME280;53242;51.694;10.006;2024-02-21T05:51:39;99926.41;;;7.93;88.03
66430;BME280;53242;51.694;10.006;2024-02-21T05:54:02;99924.56;;;7.93;88.17
66430;BME280;53242;51.694;10.006;2024-02-21T05:56:24;99926.88;;;7.96;88.07
66430;BME280;53242;51.694;10.006;2024-02-21T05:58:47;99923.75;;;7.93;88.15
66430;BME280;53242;51.694;10.006;2024-02-21T06:01:12;99931.00;;;7.99;88.00
66430;BME280;53242;51.694;10.006;2024-02-21T06:03:34;99931.81;;;8.07;87.62
66430;BME280;53242;51.694;10.006;2024-02-21T06:05:56;99924.41;;;8.03;87.44
66430;BME280;53242;51.694;10.006;2024-02-21T06:08:19;99932.28;;;8.03;87.19
66430;BME280;53242;51.694;10.006;2024-02-21T06:10:42;99928.66;;;8.12;87.18
66430;BME280;53242;51.694;10.006;2024-02-21T06:13:04;99911.94;;;7.97;87.46
66430;BME280;53242;51.694;10.006;2024-02-21T06:15:27;99916.19;;;7.98;87.34
66430;BME280;53242;51.694;10.006;2024-02-21T06:17:49;99903.88;;;7.98;88.00
66430;BME280;53242;51.694;10.006;2024-02-21T06:20:11;99886.47;;;7.97;87.40
66430;BME280;53242;51.694;10.006;2024-02-21T06:22:34;99876.28;;;8.02;87.93
66430;BME280;53242;51.694;10.006;2024-02-21T06:24:56;99870.06;;;7.95;88.08
66430;BME280;53242;51.694;10.006;2024-02-21T06:27:19;99869.56;;;7.92;87.99
66430;BME280;53242;51.694;10.006;2024-02-21T06:29:41;99875.31;;;7.95;88.08
66430;BME280;53242;51.694;10.006;2024-02-21T06:32:04;99872.00;;;7.93;88.06
66430;BME280;53242;51.694;10.006;2024-02-21T06:34:26;99874.81;;;7.92;87.92
66430;BME280;53242;51.694;10.006;2024-02-21T06:36:49;99870.88;;;7.87;87.98
66430;BME280;53242;51.694;10.006;2024-02-21T06:39:11;99870.88;;;7.87;87.77
66430;BME280;53242;51.694;10.006;2024-02-21T06:41:33;99873.47;;;7.96;87.33
66430;BME280;53242;51.694;10.006;2024-02-21T06:43:56;99874.47;;;8.03;86.91
66430;BME280;53242;51.694;10.006;2024-02-21T06:46:25;99865.09;;;8.00;86.69
66430;BME280;53242;51.694;10.006;2024-02-21T06:48:48;99862.97;;;8.04;86.55
66430;BME280;53242;51.694;10.006;2024-02-21T06:51:10;99856.88;;;8.03;86.50
66430;BME280;53242;51.694;10.006;2024-02-21T06:53:33;99858.34;;;8.06;86.61
66430;BME280;53242;51.694;10.006;2024-02-21T06:55:55;99868.06;;;8.05;86.51
66430;BME280;53242;51.694;10.006;2024-02-21T06:58:18;99862.00;;;8.05;86.26
66430;BME280;53242;51.694;10.006;2024-02-21T07:00:42;99870.31;;;8.17;86.07
66430;BME280;53242;51.694;10.006;2024-02-21T07:03:04;99872.81;;;8.10;86.08
66430;BME280;53242;51.694;10.006;2024-02-21T07:05:27;99871.16;;;8.09;86.08
66430;BME280;53242;51.694;10.006;2024-02-21T07:07:49;99867.69;;;8.09;86.00
66430;BME280;53242;51.694;10.006;2024-02-21T07:10:12;99869.03;;;8.04;86.14
66430;BME280;53242;51.694;10.006;2024-02-21T07:12:34;99865.06;;;8.09;85.97
66430;BME280;53242;51.694;10.006;2024-02-21T07:14:59;99862.13;;;8.03;85.59
66430;BME280;53242;51.694;10.006;2024-02-21T07:17:21;99868.50;;;8.17;85.36
66430;BME280;53242;51.694;10.006;2024-02-21T07:19:44;99864.94;;;8.10;85.54
66430;BME280;53242;51.694;10.006;2024-02-21T07:22:06;99857.66;;;8.20;85.20
66430;BME280;53242;51.694;10.006;2024-02-21T07:24:28;99858.97;;;8.25;85.14
66430;BME280;53242;51.694;10.006;2024-02-21T07:26:51;99859.94;;;8.23;85.32
66430;BME280;53242;51.694;10.006;2024-02-21T07:29:13;99858.13;;;8.24;85.06
66430;BME280;53242;51.694;10.006;2024-02-21T07:31:42;99835.91;;;8.35;84.61
66430;BME280;53242;51.694;10.006;2024-02-21T07:34:05;99840.88;;;8.21;83.79
66430;BME280;53242;51.694;10.006;2024-02-21T07:36:30;99832.44;;;8.34;83.92
66430;BME280;53242;51.694;10.006;2024-02-21T07:38:52;99830.41;;;8.45;83.76
66430;BME280;53242;51.694;10.006;2024-02-21T07:41:15;99834.88;;;8.44;84.08
66430;BME280;53242;51.694;10.006;2024-02-21T07:43:37;99822.72;;;8.43;83.94
66430;BME280;53242;51.694;10.006;2024-02-21T07:46:00;99820.75;;;8.37;83.18
66430;BME280;53242;51.694;10.006;2024-02-21T07:48:22;99823.53;;;8.44;83.43
66430;BME280;53242;51.694;10.006;2024-02-21T07:50:46;99824.53;;;8.43;83.40
66430;BME280;53242;51.694;10.006;2024-02-21T07:53:09;99833.66;;;8.63;83.16
66430;BME280;53242;51.694;10.006;2024-02-21T07:55:31;99834.53;;;8.55;83.03
66430;BME280;53242;51.694;10.006;2024-02-21T07:57:54;99838.09;;;8.63;82.83
66430;BME280;53242;51.694;10.006;2024-02-21T08:00:16;99827.44;;;8.56;82.70
66430;BME280;53242;51.694;10.006;2024-02-21T08:02:42;99825.69;;;8.71;81.75
66430;BME280;53242;51.694;10.006;2024-02-21T08:05:06;99832.03;;;8.85;81.69
66430;BME280;53242;51.694;10.006;2024-02-21T08:07:28;99828.31;;;8.80;81.61
66430;BME280;53242;51.694;10.006;2024-02-21T08:09:51;99829.91;;;8.81;81.05
66430;BME280;53242;51.694;10.006;2024-02-21T08:12:13;99831.81;;;8.95;81.12
66430;BME280;53242;51.694;10.006;2024-02-21T08:14:36;99823.63;;;8.90;80.76
66430;BME280;53242;51.694;10.006;2024-02-21T08:16:58;99822.97;;;8.88;80.66
66430;BME280;53242;51.694;10.006;2024-02-21T08:19:21;99817.19;;;8.93;80.63
66430;BME280;53242;51.694;10.006;2024-02-21T08:21:45;99819.97;;;8.91;80.78
66430;BME280;53242;51.694;10.006;2024-02-21T08:24:09;99824.22;;;9.00;79.82
66430;BME280;53242;51.694;10.006;2024-02-21T08:26:32;99823.44;;;9.15;80.16
66430;BME280;53242;51.694;10.006;2024-02-21T08:28:55;99814.59;;;9.08;79.74
66430;BME280;53242;51.694;10.006;2024-02-21T08:31:20;99822.91;;;8.96;79.17
66430;BME280;53242;51.694;10.006;2024-02-21T08:33:43;99821.56;;;9.00;79.36
66430;BME280;53242;51.694;10.006;2024-02-21T08:36:05;99815.59;;;9.07;79.46
66430;BME280;53242;51.694;10.006;2024-02-21T08:38:28;99817.50;;;8.98;79.43
66430;BME280;53242;51.694;10.006;2024-02-21T08:40:50;99814.97;;;9.04;79.33
66430;BME280;53242;51.694;10.006;2024-02-21T08:43:13;99812.22;;;8.98;79.17
66430;BME280;53242;51.694;10.006;2024-02-21T08:45:35;99810.91;;;8.94;79.00
66430;BME280;53242;51.694;10.006;2024-02-21T08:47:58;99812.31;;;9.04;79.06
66430;BME280;53242;51.694;10.006;2024-02-21T08:50:20;99807.47;;;9.16;78.82
66430;BME280;53242;51.694;10.006;2024-02-21T08:52:42;99806.97;;;9.13;77.89
66430;BME280;53242;51.694;10.006;2024-02-21T08:55:05;99801.97;;;9.03;77.61
66430;BME280;53242;51.694;10.006;2024-02-21T08:57:28;99791.00;;;9.14;77.48
66430;BME280;53242;51.694;10.006;2024-02-21T08:59:51;99789.03;;;9.16;77.28
66430;BME280;53242;51.694;10.006;2024-02-21T09:02:13;99789.72;;;9.10;77.04
66430;BME280;53242;51.694;10.006;2024-02-21T09:04:38;99782.75;;;9.17;76.33
66430;BME280;53242;51.694;10.006;2024-02-21T09:07:00;99787.03;;;9.18;76.17
66430;BME280;53242;51.694;10.006;2024-02-21T09:09:23;99778.13;;;9.19;77.45
66430;BME280;53242;51.694;10.006;2024-02-21T09:11:45;99782.78;;;9.32;76.62
66430;BME280;53242;51.694;10.006;2024-02-21T09:14:08;99781.31;;;9.30;76.79
66430;BME280;53242;51.694;10.006;2024-02-21T09:16:31;99783.22;;;9.21;75.05
66430;BME280;53242;51.694;10.006;2024-02-21T09:18:54;99776.06;;;9.30;75.79
66430;BME280;53242;51.694;10.006;2024-02-21T09:21:16;99779.53;;;9.45;75.27
66430;BME280;53242;51.694;10.006;2024-02-21T09:23:39;99766.97;;;9.32;75.38
66430;BME280;53242;51.694;10.006;2024-02-21T09:26:01;99759.81;;;9.41;75.31
66430;BME280;53242;51.694;10.006;2024-02-21T09:28:26;99764.91;;;9.58;75.46
66430;BME280;53242;51.694;10.006;2024-02-21T09:30:48;99768.84;;;9.47;74.43
66430;BME280;53242;51.694;10.006;2024-02-21T09:33:11;99760.56;;;9.50;74.83
66430;BME280;53242;51.694;10.006;2024-02-21T09:35:33;99755.94;;;9.52;75.25
66430;BME280;53242;51.694;10.006;2024-02-21T09:37:56;99760.03;;;9.54;75.16
66430;BME280;53242;51.694;10.006;2024-02-21T09:40:18;99758.81;;;9.42;74.78
66430;BME280;53242;51.694;10.006;2024-02-21T09:42:41;99755.47;;;9.63;74.74
66430;BME280;53242;51.694;10.006;2024-02-21T09:45:07;99759.47;;;9.59;75.02
66430;BME280;53242;51.694;10.006;2024-02-21T09:47:40;99759.56;;;9.51;74.52
66430;BME280;53242;51.694;10.006;2024-02-21T09:50:06;99751.09;;;9.55;75.06
66430;BME280;53242;51.694;10.006;2024-02-21T09:52:29;99751.56;;;9.74;74.75
66430;BME280;53242;51.694;10.006;2024-02-21T09:54:51;99744.19;;;9.84;75.18
66430;BME280;53242;51.694;10.006;2024-02-21T09:57:15;99743.63;;;9.89;74.86
66430;BME280;53242;51.694;10.006;2024-02-21T09:59:37;99737.13;;;9.70;74.60
66430;BME280;53242;51.694;10.006;2024-02-21T10:02:00;99749.84;;;9.66;75.09
66430;BME280;53242;51.694;10.006;2024-02-21T10:04:23;99747.66;;;9.55;74.49
66430;BME280;53242;51.694;10.006;2024-02-21T10:06:45;99749.56;;;9.61;74.42
66430;BME280;53242;51.694;10.006;2024-02-21T10:09:08;99742.38;;;9.55;75.13
66430;BME280;53242;51.694;10.006;2024-02-21T10:11:30;99749.13;;;9.58;74.52
66430;BME280;53242;51.694;10.006;2024-02-21T10:14:06;99736.47;;;9.68;73.85
66430;BME280;53242;51.694;10.006;2024-02-21T10:16:28;99745.41;;;9.52;74.25
66430;BME280;53242;51.694;10.006;2024-02-21T10:18:54;99744.56;;;9.66;74.87
66430;BME280;53242;51.694;10.006;2024-02-21T10:21:17;99738.84;;;9.63;74.58
66430;BME280;53242;51.694;10.006;2024-02-21T10:23:46;99749.75;;;9.60;74.26
66430;BME280;53242;51.694;10.006;2024-02-21T10:26:09;99759.38;;;9.67;74.46
66430;BME280;53242;51.694;10.006;2024-02-21T10:28:31;99753.56;;;9.57;74.97
66430;BME280;53242;51.694;10.006;2024-02-21T10:30:54;99732.59;;;9.64;74.51
66430;BME280;53242;51.694;10.006;2024-02-21T10:33:16;99726.38;;;9.86;74.83
66430;BME280;53242;51.694;10.006;2024-02-21T10:35:39;99722.84;;;9.79;74.23
66430;BME280;53242;51.694;10.006;2024-02-21T10:38:01;99713.50;;;9.77;74.16
66430;BME280;53242;51.694;10.006;2024-02-21T10:40:28;99703.66;;;9.85;73.65
66430;BME280;53242;51.694;10.006;2024-02-21T10:42:59;99702.69;;;9.71;73.02
66430;BME280;53242;51.694;10.006;2024-02-21T10:45:23;99687.91;;;9.92;72.76
66430;BME280;53242;51.694;10.006;2024-02-21T10:47:52;99683.53;;;9.99;72.06
66430;BME280;53242;51.694;10.006;2024-02-21T10:50:17;99682.09;;;10.18;72.37
66430;BME280;53242;51.694;10.006;2024-02-21T10:52:47;99685.94;;;10.16;72.93
66430;BME280;53242;51.694;10.006;2024-02-21T10:55:29;99683.03;;;10.11;72.38
66430;BME280;53242;51.694;10.006;2024-02-21T10:57:55;99677.28;;;10.22;73.43
66430;BME280;53242;51.694;10.006;2024-02-21T11:00:19;99668.31;;;10.16;72.64
66430;BME280;53242;51.694;10.006;2024-02-21T11:02:42;99668.97;;;10.25;71.58
66430;BME280;53242;51.694;10.006;2024-02-21T11:05:05;99668.13;;;10.18;72.15
66430;BME280;53242;51.694;10.006;2024-02-21T11:07:29;99665.09;;;10.21;72.35
66430;BME280;53242;51.694;10.006;2024-02-21T11:09:54;99662.69;;;10.26;71.69
66430;BME280;53242;51.694;10.006;2024-02-21T11:12:19;99653.25;;;10.32;71.79
66430;BME280;53242;51.694;10.006;2024-02-21T11:14:42;99649.25;;;10.36;71.03
66430;BME280;53242;51.694;10.006;2024-02-21T11:17:20;99649.59;;;10.55;70.29
66430;BME280;53242;51.694;10.006;2024-02-21T11:19:48;99648.28;;;10.44;71.58
66430;BME280;53242;51.694;10.006;2024-02-21T11:22:15;99639.13;;;10.40;71.14
66430;BME280;53242;51.694;10.006;2024-02-21T11:24:38;99626.94;;;10.39;71.49
66430;BME280;53242;51.694;10.006;2024-02-21T11:27:14;99618.31;;;10.30;72.01
66430;BME280;53242;51.694;10.006;2024-02-21T11:29:47;99606.75;;;10.52;71.98
66430;BME280;53242;51.694;10.006;2024-02-21T11:32:14;99607.13;;;10.49;71.67
66430;BME280;53242;51.694;10.006;2024-02-21T11:34:37;99599.41;;;10.48;70.97
66430;BME280;53242;51.694;10.006;2024-02-21T11:36:59;99589.66;;;10.48;71.59
66430;BME280;53242;51.694;10.006;2024-02-21T11:39:25;99583.69;;;10.61;71.25
66430;BME280;53242;51.694;10.006;2024-02-21T11:42:04;99584.72;;;10.67;71.57
66430;BME280;53242;51.694;10.006;2024-02-21T11:44:27;99575.09;;;10.52;71.98
66430;BME280;53242;51.694;10.006;2024-02-21T11:46:50;99577.75;;;10.31;71.82
66430;BME280;53242;51.694;10.006;2024-02-21T11:49:13;99575.41;;;10.43;71.65
66430;BME280;53242;51.694;10.006;2024-02-21T11:51:35;99564.97;;;10.34;71.90
66430;BME280;53242;51.694;10.006;2024-02-21T11:53:57;99571.72;;;10.37;71.72
66430;BME280;53242;51.694;10.006;2024-02-21T11:56:20;99564.53;;;10.31;71.80
66430;BME280;53242;51.694;10.006;2024-02-21T11:58:42;99560.38;;;10.43;72.21
66430;BME280;53242;51.694;10.006;2024-02-21T12:01:05;99555.25;;;10.63;71.72
66430;BME280;53242;51.694;10.006;2024-02-21T12:03:29;99554.47;;;10.63;72.08
66430;BME280;53242;51.694;10.006;2024-02-21T12:05:53;99546.69;;;10.55;71.68
66430;BME280;53242;51.694;10.006;2024-02-21T12:08:16;99536.88;;;10.48;72.08
66430;BME280;53242;51.694;10.006;2024-02-21T12:10:41;99529.38;;;10.45;71.96
66430;BME280;53242;51.694;10.006;2024-02-21T12:13:08;99529.75;;;10.42;72.15
66430;BME280;53242;51.694;10.006;2024-02-21T12:15:31;99521.91;;;10.56;72.31
66430;BME280;53242;51.694;10.006;2024-02-21T12:17:53;99516.34;;;10.72;72.00
66430;BME280;53242;51.694;10.006;2024-02-21T12:20:15;99508.91;;;10.89;71.28
66430;BME280;53242;51.694;10.006;2024-02-21T12:22:38;99507.47;;;10.86;71.35
66430;BME280;53242;51.694;10.006;2024-02-21T12:25:03;99497.13;;;10.92;70.77
66430;BME280;53242;51.694;10.006;2024-02-21T12:27:26;99492.97;;;10.69;70.82
66430;BME280;53242;51.694;10.006;2024-02-21T12:29:48;99488.28;;;10.64;69.90
66430;BME280;53242;51.694;10.006;2024-02-21T12:32:11;99488.78;;;10.46;69.68
66430;BME280;53242;51.694;10.006;2024-02-21T12:34:33;99492.66;;;10.50;70.77
66430;BME280;53242;51.694;10.006;2024-02-21T12:36:56;99491.00;;;10.43;70.27